Terminal Aerodrome Forecast
Issued by NWS

Home | Current Version | Previous Version | Text Only | Print | Product List | Glossary On
Versions: 1 2 3 4 5 6 7 8 9 10 11 12 13 14 15 16 17 18 19 20 21 22 23 24 25 26 27 28 29
508
FTUS44 KEWX 291346 CCA
TAFSSF
TAF COR
KSSF 291346Z 2914/3012 08012G22KT P6SM VCSH SCT040 BKN120 BKN250
     FM291500 12007KT P6SM SCT025 BKN250
     FM291700 13011KT P6SM BKN040
     FM300400 13010KT P6SM OVC018
     FM300800 10007KT P6SM OVC007=

USA.gov is the U.S. government's official web portal to all federal, state and local government web resources and services.